sensor_id;sensor_type;location;lat;lon;timestamp;P1;durP1;ratioP1;P2;durP2;ratioP2
69203;SDS011;56317;27.658;85.326;2024-03-07T00:00:09;148.48;;;62.92;;
69203;SDS011;56317;27.658;85.326;2024-03-07T00:02:41;148.23;;;60.83;;
69203;SDS011;56317;27.658;85.326;2024-03-07T00:05:09;144.55;;;64.40;;
69203;SDS011;56317;27.658;85.326;2024-03-07T00:07:40;155.80;;;66.07;;
69203;SDS011;56317;27.658;85.326;2024-03-07T00:10:08;142.07;;;63.67;;
69203;SDS011;56317;27.658;85.326;2024-03-07T00:12:37;141.20;;;61.75;;
69203;SDS011;56317;27.658;85.326;2024-03-07T00:15:09;122.50;;;57.58;;
69203;SDS011;56317;27.658;85.326;2024-03-07T00:17:38;143.45;;;58.25;;
69203;SDS011;56317;27.658;85.326;2024-03-07T00:20:06;126.95;;;57.58;;
69203;SDS011;56317;27.658;85.326;2024-03-07T00:22:44;140.50;;;57.03;;
69203;SDS011;56317;27.658;85.326;2024-03-07T00:25:11;138.27;;;58.83;;
69203;SDS011;56317;27.658;85.326;2024-03-07T00:27:44;127.80;;;57.38;;
69203;SDS011;56317;27.658;85.326;2024-03-07T00:30:12;127.47;;;53.00;;
69203;SDS011;56317;27.658;85.326;2024-03-07T00:32:44;131.32;;;52.10;;
69203;SDS011;56317;27.658;85.326;2024-03-07T00:35:11;126.45;;;53.30;;
69203;SDS011;56317;27.658;85.326;2024-03-07T00:37:38;171.13;;;66.57;;
69203;SDS011;56317;27.658;85.326;2024-03-07T00:40:06;139.48;;;64.80;;
69203;SDS011;56317;27.658;85.326;2024-03-07T00:42:35;152.70;;;70.45;;
69203;SDS011;56317;27.658;85.326;2024-03-07T00:45:03;160.40;;;70.40;;
69203;SDS011;56317;27.658;85.326;2024-03-07T00:47:30;139.02;;;64.40;;
69203;SDS011;56317;27.658;85.326;2024-03-07T00:49:57;145.45;;;67.28;;
69203;SDS011;56317;27.658;85.326;2024-03-07T00:52:25;166.40;;;66.82;;
69203;SDS011;56317;27.658;85.326;2024-03-07T00:54:52;131.55;;;63.00;;
69203;SDS011;56317;27.658;85.326;2024-03-07T00:57:19;160.18;;;73.25;;
69203;SDS011;56317;27.658;85.326;2024-03-07T00:59:47;157.88;;;69.72;;
69203;SDS011;56317;27.658;85.326;2024-03-07T01:02:14;178.00;;;75.95;;
69203;SDS011;56317;27.658;85.326;2024-03-07T01:04:42;178.10;;;79.75;;
69203;SDS011;56317;27.658;85.326;2024-03-07T01:07:10;173.77;;;77.20;;
69203;SDS011;56317;27.658;85.326;2024-03-07T01:09:37;146.93;;;64.93;;
69203;SDS011;56317;27.658;85.326;2024-03-07T01:12:04;168.80;;;70.57;;
69203;SDS011;56317;27.658;85.326;2024-03-07T01:14:32;131.18;;;64.65;;
69203;SDS011;56317;27.658;85.326;2024-03-07T01:16:59;138.55;;;62.35;;
69203;SDS011;56317;27.658;85.326;2024-03-07T01:19:29;150.23;;;65.15;;
69203;SDS011;56317;27.658;85.326;2024-03-07T01:21:56;151.02;;;63.47;;
69203;SDS011;56317;27.658;85.326;2024-03-07T01:24:23;163.35;;;63.83;;
69203;SDS011;56317;27.658;85.326;2024-03-07T01:26:51;141.68;;;63.72;;
69203;SDS011;56317;27.658;85.326;2024-03-07T01:29:18;146.55;;;64.03;;
69203;SDS011;56317;27.658;85.326;2024-03-07T01:31:46;148.50;;;62.60;;
69203;SDS011;56317;27.658;85.326;2024-03-07T01:34:14;128.98;;;59.88;;
69203;SDS011;56317;27.658;85.326;2024-03-07T01:36:41;140.70;;;59.17;;
69203;SDS011;56317;27.658;85.326;2024-03-07T01:39:08;144.82;;;63.75;;
69203;SDS011;56317;27.658;85.326;2024-03-07T01:41:36;151.20;;;66.57;;
69203;SDS011;56317;27.658;85.326;2024-03-07T01:44:03;149.80;;;68.50;;
69203;SDS011;56317;27.658;85.326;2024-03-07T01:46:30;151.80;;;66.40;;
69203;SDS011;56317;27.658;85.326;2024-03-07T01:48:58;138.93;;;63.72;;
69203;SDS011;56317;27.658;85.326;2024-03-07T01:51:25;134.10;;;60.92;;
69203;SDS011;56317;27.658;85.326;2024-03-07T01:54:02;120.25;;;56.03;;
69203;SDS011;56317;27.658;85.326;2024-03-07T01:56:29;133.07;;;57.13;;
69203;SDS011;56317;27.658;85.326;2024-03-07T01:58:56;117.30;;;48.15;;
69203;SDS011;56317;27.658;85.326;2024-03-07T02:01:27;109.60;;;50.83;;
69203;SDS011;56317;27.658;85.326;2024-03-07T02:03:55;105.07;;;48.65;;
69203;SDS011;56317;27.658;85.326;2024-03-07T02:06:22;114.75;;;51.15;;
69203;SDS011;56317;27.658;85.326;2024-03-07T02:08:50;127.57;;;57.08;;
69203;SDS011;56317;27.658;85.326;2024-03-07T02:11:18;138.73;;;65.65;;
69203;SDS011;56317;27.658;85.326;2024-03-07T02:13:45;144.50;;;67.07;;
69203;SDS011;56317;27.658;85.326;2024-03-07T02:16:12;159.55;;;68.97;;
69203;SDS011;56317;27.658;85.326;2024-03-07T02:18:39;157.63;;;73.28;;
69203;SDS011;56317;27.658;85.326;2024-03-07T02:21:11;150.25;;;72.75;;
69203;SDS011;56317;27.658;85.326;2024-03-07T02:23:39;146.93;;;64.97;;
69203;SDS011;56317;27.658;85.326;2024-03-07T02:26:06;144.52;;;63.95;;
69203;SDS011;56317;27.658;85.326;2024-03-07T02:28:34;136.40;;;63.85;;
69203;SDS011;56317;27.658;85.326;2024-03-07T02:31:01;133.07;;;61.58;;
69203;SDS011;56317;27.658;85.326;2024-03-07T02:33:28;116.90;;;57.35;;
69203;SDS011;56317;27.658;85.326;2024-03-07T02:35:58;101.85;;;49.47;;
69203;SDS011;56317;27.658;85.326;2024-03-07T02:38:25;96.57;;;47.13;;
69203;SDS011;56317;27.658;85.326;2024-03-07T02:40:53;96.40;;;49.03;;
69203;SDS011;56317;27.658;85.326;2024-03-07T02:43:20;121.60;;;52.45;;
69203;SDS011;56317;27.658;85.326;2024-03-07T02:45:47;120.85;;;54.55;;
69203;SDS011;56317;27.658;85.326;2024-03-07T02:48:16;108.43;;;53.20;;
69203;SDS011;56317;27.658;85.326;2024-03-07T02:50:44;111.55;;;53.45;;
69203;SDS011;56317;27.658;85.326;2024-03-07T02:53:11;121.93;;;56.47;;
69203;SDS011;56317;27.658;85.326;2024-03-07T02:55:38;105.28;;;54.80;;
69203;SDS011;56317;27.658;85.326;2024-03-07T02:58:06;115.50;;;53.70;;
69203;SDS011;56317;27.658;85.326;2024-03-07T03:00:33;112.47;;;55.03;;
69203;SDS011;56317;27.658;85.326;2024-03-07T03:03:01;109.90;;;54.72;;
69203;SDS011;56317;27.658;85.326;2024-03-07T03:05:28;99.97;;;50.20;;
69203;SDS011;56317;27.658;85.326;2024-03-07T03:07:56;110.50;;;53.67;;
69203;SDS011;56317;27.658;85.326;2024-03-07T03:10:24;102.00;;;50.17;;
69203;SDS011;56317;27.658;85.326;2024-03-07T03:12:57;105.85;;;48.35;;
69203;SDS011;56317;27.658;85.326;2024-03-07T03:15:24;92.40;;;43.28;;
69203;SDS011;56317;27.658;85.326;2024-03-07T03:17:52;103.72;;;44.30;;
69203;SDS011;56317;27.658;85.326;2024-03-07T03:20:19;100.45;;;44.03;;
69203;SDS011;56317;27.658;85.326;2024-03-07T03:22:59;93.43;;;44.10;;
69203;SDS011;56317;27.658;85.326;2024-03-07T03:25:28;91.70;;;42.10;;
69203;SDS011;56317;27.658;85.326;2024-03-07T03:28:01;87.97;;;44.20;;
69203;SDS011;56317;27.658;85.326;2024-03-07T03:30:30;80.80;;;41.65;;
69203;SDS011;56317;27.658;85.326;2024-03-07T03:32:58;87.53;;;43.22;;
69203;SDS011;56317;27.658;85.326;2024-03-07T03:35:28;80.75;;;41.60;;
69203;SDS011;56317;27.658;85.326;2024-03-07T03:37:56;81.40;;;38.67;;
69203;SDS011;56317;27.658;85.326;2024-03-07T03:40:23;84.28;;;41.28;;
69203;SDS011;56317;27.658;85.326;2024-03-07T03:42:50;77.13;;;39.63;;
69203;SDS011;56317;27.658;85.326;2024-03-07T03:45:18;82.05;;;40.17;;
69203;SDS011;56317;27.658;85.326;2024-03-07T03:47:45;83.07;;;41.85;;
69203;SDS011;56317;27.658;85.326;2024-03-07T03:50:13;81.13;;;43.78;;
69203;SDS011;56317;27.658;85.326;2024-03-07T03:52:41;87.63;;;47.10;;
69203;SDS011;56317;27.658;85.326;2024-03-07T03:55:08;82.22;;;42.08;;
69203;SDS011;56317;27.658;85.326;2024-03-07T03:57:40;88.95;;;40.38;;
69203;SDS011;56317;27.658;85.326;2024-03-07T04:00:10;74.22;;;38.80;;
69203;SDS011;56317;27.658;85.326;2024-03-07T04:02:42;73.25;;;36.65;;
69203;SDS011;56317;27.658;85.326;2024-03-07T04:05:15;62.53;;;33.30;;
69203;SDS011;56317;27.658;85.326;2024-03-07T04:07:44;63.83;;;33.05;;
69203;SDS011;56317;27.658;85.326;2024-03-07T04:10:12;56.72;;;31.10;;
69203;SDS011;56317;27.658;85.326;2024-03-07T04:12:41;67.05;;;35.80;;
69203;SDS011;56317;27.658;85.326;2024-03-07T04:15:13;71.72;;;36.80;;
69203;SDS011;56317;27.658;85.326;2024-03-07T04:17:44;59.88;;;32.03;;
69203;SDS011;56317;27.658;85.326;2024-03-07T04:20:17;69.88;;;30.42;;
69203;SDS011;56317;27.658;85.326;2024-03-07T04:22:45;74.68;;;35.45;;
69203;SDS011;56317;27.658;85.326;2024-03-07T04:25:12;81.45;;;33.80;;
69203;SDS011;56317;27.658;85.326;2024-03-07T04:27:40;52.30;;;22.27;;
69203;SDS011;56317;27.658;85.326;2024-03-07T04:30:07;58.38;;;27.67;;
69203;SDS011;56317;27.658;85.326;2024-03-07T04:32:38;67.73;;;30.87;;
69203;SDS011;56317;27.658;85.326;2024-03-07T04:35:07;66.70;;;29.58;;
69203;SDS011;56317;27.658;85.326;2024-03-07T04:37:38;39.47;;;18.63;;
69203;SDS011;56317;27.658;85.326;2024-03-07T04:40:07;48.07;;;19.07;;
69203;SDS011;56317;27.658;85.326;2024-03-07T04:42:44;42.78;;;18.60;;
69203;SDS011;56317;27.658;85.326;2024-03-07T04:45:16;40.30;;;17.52;;
69203;SDS011;56317;27.658;85.326;2024-03-07T04:47:44;30.60;;;15.00;;
69203;SDS011;56317;27.658;85.326;2024-03-07T04:50:12;31.48;;;15.80;;
69203;SDS011;56317;27.658;85.326;2024-03-07T04:52:42;32.03;;;14.00;;
69203;SDS011;56317;27.658;85.326;2024-03-07T04:55:11;27.92;;;15.38;;
69203;SDS011;56317;27.658;85.326;2024-03-07T04:57:38;27.95;;;14.57;;
69203;SDS011;56317;27.658;85.326;2024-03-07T05:00:07;23.67;;;12.98;;
69203;SDS011;56317;27.658;85.326;2024-03-07T05:02:43;28.67;;;12.18;;
69203;SDS011;56317;27.658;85.326;2024-03-07T05:05:12;31.20;;;12.60;;
69203;SDS011;56317;27.658;85.326;2024-03-07T05:07:40;32.25;;;13.45;;
69203;SDS011;56317;27.658;85.326;2024-03-07T05:10:07;23.27;;;10.13;;
69203;SDS011;56317;27.658;85.326;2024-03-07T05:12:34;13.85;;;7.63;;
69203;SDS011;56317;27.658;85.326;2024-03-07T05:15:08;16.42;;;8.25;;
69203;SDS011;56317;27.658;85.326;2024-03-07T05:17:37;16.20;;;7.88;;
69203;SDS011;56317;27.658;85.326;2024-03-07T05:20:07;19.48;;;9.68;;
69203;SDS011;56317;27.658;85.326;2024-03-07T05:22:38;17.23;;;8.43;;
69203;SDS011;56317;27.658;85.326;2024-03-07T05:25:18;17.02;;;8.10;;
69203;SDS011;56317;27.658;85.326;2024-03-07T05:27:47;15.60;;;7.80;;
69203;SDS011;56317;27.658;85.326;2024-03-07T05:30:17;13.88;;;9.00;;
69203;SDS011;56317;27.658;85.326;2024-03-07T05:32:45;21.20;;;9.20;;
69203;SDS011;56317;27.658;85.326;2024-03-07T05:35:13;17.55;;;9.48;;
69203;SDS011;56317;27.658;85.326;2024-03-07T05:37:41;16.38;;;9.75;;
69203;SDS011;56317;27.658;85.326;2024-03-07T05:40:12;19.27;;;9.50;;
69203;SDS011;56317;27.658;85.326;2024-03-07T05:42:40;21.00;;;9.68;;
69203;SDS011;56317;27.658;85.326;2024-03-07T05:45:08;19.40;;;11.02;;
69203;SDS011;56317;27.658;85.326;2024-03-07T05:47:36;16.27;;;9.20;;
69203;SDS011;56317;27.658;85.326;2024-03-07T05:50:03;16.67;;;8.35;;
69203;SDS011;56317;27.658;85.326;2024-03-07T05:52:33;20.48;;;9.27;;
69203;SDS011;56317;27.658;85.326;2024-03-07T05:57:32;20.95;;;9.07;;
69203;SDS011;56317;27.658;85.326;2024-03-07T05:59:59;17.25;;;9.20;;
69203;SDS011;56317;27.658;85.326;2024-03-07T06:02:26;23.98;;;9.07;;
69203;SDS011;56317;27.658;85.326;2024-03-07T06:04:54;23.60;;;10.32;;
69203;SDS011;56317;27.658;85.326;2024-03-07T06:07:21;18.42;;;10.02;;
69203;SDS011;56317;27.658;85.326;2024-03-07T06:09:48;19.40;;;8.55;;
69203;SDS011;56317;27.658;85.326;2024-03-07T06:12:16;21.17;;;8.88;;
69203;SDS011;56317;27.658;85.326;2024-03-07T06:14:43;16.40;;;7.93;;
69203;SDS011;56317;27.658;85.326;2024-03-07T06:17:10;26.95;;;11.13;;
69203;SDS011;56317;27.658;85.326;2024-03-07T06:19:37;23.52;;;11.27;;
69203;SDS011;56317;27.658;85.326;2024-03-07T06:22:04;22.25;;;10.40;;
69203;SDS011;56317;27.658;85.326;2024-03-07T06:24:36;29.23;;;12.57;;
69203;SDS011;56317;27.658;85.326;2024-03-07T06:27:06;27.30;;;11.13;;
69203;SDS011;56317;27.658;85.326;2024-03-07T06:29:45;22.03;;;11.83;;
69203;SDS011;56317;27.658;85.326;2024-03-07T06:32:14;20.80;;;11.75;;
69203;SDS011;56317;27.658;85.326;2024-03-07T06:34:41;18.75;;;9.15;;
69203;SDS011;56317;27.658;85.326;2024-03-07T06:37:08;13.70;;;7.43;;
69203;SDS011;56317;27.658;85.326;2024-03-07T06:42:07;12.75;;;8.20;;
69203;SDS011;56317;27.658;85.326;2024-03-07T06:44:35;22.52;;;8.13;;
69203;SDS011;56317;27.658;85.326;2024-03-07T06:47:02;20.98;;;8.63;;
69203;SDS011;56317;27.658;85.326;2024-03-07T06:49:31;14.60;;;6.82;;
69203;SDS011;56317;27.658;85.326;2024-03-07T06:51:58;18.48;;;7.70;;
69203;SDS011;56317;27.658;85.326;2024-03-07T06:54:25;17.52;;;7.00;;
69203;SDS011;56317;27.658;85.326;2024-03-07T06:56:52;16.95;;;7.70;;
69203;SDS011;56317;27.658;85.326;2024-03-07T06:59:19;20.33;;;8.40;;
69203;SDS011;56317;27.658;85.326;2024-03-07T07:01:47;24.38;;;8.25;;
69203;SDS011;56317;27.658;85.326;2024-03-07T07:04:15;21.40;;;7.55;;
69203;SDS011;56317;27.658;85.326;2024-03-07T07:06:42;22.45;;;7.47;;
69203;SDS011;56317;27.658;85.326;2024-03-07T07:09:09;15.68;;;7.65;;
69203;SDS011;56317;27.658;85.326;2024-03-07T07:11:36;17.80;;;7.82;;
69203;SDS011;56317;27.658;85.326;2024-03-07T07:14:04;21.58;;;8.57;;
69203;SDS011;56317;27.658;85.326;2024-03-07T07:16:31;16.58;;;7.72;;
69203;SDS011;56317;27.658;85.326;2024-03-07T07:19:01;20.17;;;8.05;;
69203;SDS011;56317;27.658;85.326;2024-03-07T07:21:28;17.75;;;7.07;;
69203;SDS011;56317;27.658;85.326;2024-03-07T07:23:55;20.33;;;7.25;;
69203;SDS011;56317;27.658;85.326;2024-03-07T07:26:24;12.80;;;6.60;;
69203;SDS011;56317;27.658;85.326;2024-03-07T07:28:51;15.55;;;7.10;;
69203;SDS011;56317;27.658;85.326;2024-03-07T07:31:19;16.42;;;6.60;;
69203;SDS011;56317;27.658;85.326;2024-03-07T07:33:47;14.32;;;6.85;;
69203;SDS011;56317;27.658;85.326;2024-03-07T07:36:14;15.30;;;6.72;;
69203;SDS011;56317;27.658;85.326;2024-03-07T07:38:43;15.60;;;6.20;;
69203;SDS011;56317;27.658;85.326;2024-03-07T07:41:10;12.95;;;5.60;;
69203;SDS011;56317;27.658;85.326;2024-03-07T07:43:39;13.32;;;6.45;;
69203;SDS011;56317;27.658;85.326;2024-03-07T07:46:07;12.68;;;5.38;;
69203;SDS011;56317;27.658;85.326;2024-03-07T07:48:34;10.20;;;5.07;;
69203;SDS011;56317;27.658;85.326;2024-03-07T07:51:01;14.65;;;4.80;;
69203;SDS011;56317;27.658;85.326;2024-03-07T07:53:30;8.52;;;4.43;;
69203;SDS011;56317;27.658;85.326;2024-03-07T07:55:58;8.05;;;4.40;;
69203;SDS011;56317;27.658;85.326;2024-03-07T07:58:25;11.77;;;4.43;;
69203;SDS011;56317;27.658;85.326;2024-03-07T08:00:53;9.65;;;4.35;;
69203;SDS011;56317;27.658;85.326;2024-03-07T08:03:22;9.52;;;4.85;;
69203;SDS011;56317;27.658;85.326;2024-03-07T08:05:49;10.32;;;4.97;;
69203;SDS011;56317;27.658;85.326;2024-03-07T08:08:17;9.55;;;4.00;;
69203;SDS011;56317;27.658;85.326;2024-03-07T08:10:46;9.45;;;3.72;;
69203;SDS011;56317;27.658;85.326;2024-03-07T08:13:13;8.88;;;3.20;;
69203;SDS011;56317;27.658;85.326;2024-03-07T08:15:40;6.60;;;3.53;;
69203;SDS011;56317;27.658;85.326;2024-03-07T08:18:07;12.40;;;4.05;;
69203;SDS011;56317;27.658;85.326;2024-03-07T08:20:35;15.63;;;4.85;;
69203;SDS011;56317;27.658;85.326;2024-03-07T08:23:02;6.95;;;3.83;;
69203;SDS011;56317;27.658;85.326;2024-03-07T08:25:29;8.18;;;3.45;;
69203;SDS011;56317;27.658;85.326;2024-03-07T08:27:57;15.02;;;3.35;;
69203;SDS011;56317;27.658;85.326;2024-03-07T08:30:26;9.73;;;3.33;;
69203;SDS011;56317;27.658;85.326;2024-03-07T08:35:21;10.13;;;4.15;;
69203;SDS011;56317;27.658;85.326;2024-03-07T08:37:49;16.10;;;4.63;;
69203;SDS011;56317;27.658;85.326;2024-03-07T08:40:22;12.13;;;4.35;;
69203;SDS011;56317;27.658;85.326;2024-03-07T08:42:56;13.18;;;5.03;;
69203;SDS011;56317;27.658;85.326;2024-03-07T08:45:24;13.98;;;4.72;;
69203;SDS011;56317;27.658;85.326;2024-03-07T08:47:53;12.85;;;4.30;;
69203;SDS011;56317;27.658;85.326;2024-03-07T08:50:22;10.52;;;4.18;;
69203;SDS011;56317;27.658;85.326;2024-03-07T08:52:53;9.52;;;4.53;;
69203;SDS011;56317;27.658;85.326;2024-03-07T08:55:22;13.50;;;4.70;;
69203;SDS011;56317;27.658;85.326;2024-03-07T08:57:53;9.98;;;4.05;;
69203;SDS011;56317;27.658;85.326;2024-03-07T09:00:20;10.93;;;4.60;;
69203;SDS011;56317;27.658;85.326;2024-03-07T09:02:51;10.00;;;4.20;;
69203;SDS011;56317;27.658;85.326;2024-03-07T09:05:24;11.90;;;4.03;;
69203;SDS011;56317;27.658;85.326;2024-03-07T09:07:53;10.90;;;4.20;;
69203;SDS011;56317;27.658;85.326;2024-03-07T09:10:21;17.17;;;4.15;;
69203;SDS011;56317;27.658;85.326;2024-03-07T09:12:51;8.32;;;4.30;;
69203;SDS011;56317;27.658;85.326;2024-03-07T09:15:19;9.27;;;4.60;;
69203;SDS011;56317;27.658;85.326;2024-03-07T09:17:49;7.93;;;4.07;;
69203;SDS011;56317;27.658;85.326;2024-03-07T09:20:18;9.43;;;4.13;;
69203;SDS011;56317;27.658;85.326;2024-03-07T09:22:46;9.10;;;4.78;;
69203;SDS011;56317;27.658;85.326;2024-03-07T09:25:14;13.32;;;4.85;;
69203;SDS011;56317;27.658;85.326;2024-03-07T09:27:42;13.30;;;5.15;;
69203;SDS011;56317;27.658;85.326;2024-03-07T09:30:09;17.40;;;7.85;;
69203;SDS011;56317;27.658;85.326;2024-03-07T09:32:44;16.63;;;5.72;;
69203;SDS011;56317;27.658;85.326;2024-03-07T09:35:12;22.10;;;5.03;;
69203;SDS011;56317;27.658;85.326;2024-03-07T09:37:40;9.30;;;4.57;;
69203;SDS011;56317;27.658;85.326;2024-03-07T09:40:09;12.32;;;5.07;;
69203;SDS011;56317;27.658;85.326;2024-03-07T09:42:46;13.25;;;5.10;;
69203;SDS011;56317;27.658;85.326;2024-03-07T09:45:15;11.13;;;5.35;;
69203;SDS011;56317;27.658;85.326;2024-03-07T09:47:47;11.55;;;4.82;;
69203;SDS011;56317;27.658;85.326;2024-03-07T09:50:17;13.75;;;4.80;;
69203;SDS011;56317;27.658;85.326;2024-03-07T09:52:48;16.27;;;5.65;;
69203;SDS011;56317;27.658;85.326;2024-03-07T09:55:18;9.95;;;5.25;;
69203;SDS011;56317;27.658;85.326;2024-03-07T09:57:47;16.58;;;6.53;;
69203;SDS011;56317;27.658;85.326;2024-03-07T10:00:19;18.50;;;6.07;;
69203;SDS011;56317;27.658;85.326;2024-03-07T10:05:28;8.13;;;4.53;;
69203;SDS011;56317;27.658;85.326;2024-03-07T10:07:58;22.67;;;6.60;;
69203;SDS011;56317;27.658;85.326;2024-03-07T10:10:26;12.00;;;5.20;;
69203;SDS011;56317;27.658;85.326;2024-03-07T10:12:54;16.83;;;5.28;;
69203;SDS011;56317;27.658;85.326;2024-03-07T10:15:30;9.95;;;4.78;;
69203;SDS011;56317;27.658;85.326;2024-03-07T10:17:58;11.13;;;5.40;;
69203;SDS011;56317;27.658;85.326;2024-03-07T10:20:26;17.52;;;5.35;;
69203;SDS011;56317;27.658;85.326;2024-03-07T10:22:53;15.60;;;5.50;;
69203;SDS011;56317;27.658;85.326;2024-03-07T10:25:22;15.63;;;5.43;;
69203;SDS011;56317;27.658;85.326;2024-03-07T10:27:53;15.60;;;5.32;;
69203;SDS011;56317;27.658;85.326;2024-03-07T10:30:20;10.40;;;4.63;;
69203;SDS011;56317;27.658;85.326;2024-03-07T10:32:49;10.57;;;5.05;;
69203;SDS011;56317;27.658;85.326;2024-03-07T10:35:21;18.13;;;5.47;;
69203;SDS011;56317;27.658;85.326;2024-03-07T10:37:52;10.82;;;5.55;;
69203;SDS011;56317;27.658;85.326;2024-03-07T10:40:20;19.63;;;6.72;;
69203;SDS011;56317;27.658;85.326;2024-03-07T10:42:51;11.82;;;5.13;;
69203;SDS011;56317;27.658;85.326;2024-03-07T10:45:23;21.33;;;5.95;;
69203;SDS011;56317;27.658;85.326;2024-03-07T10:50:51;14.93;;;6.10;;
69203;SDS011;56317;27.658;85.326;2024-03-07T10:53:34;9.85;;;4.80;;
69203;SDS011;56317;27.658;85.326;2024-03-07T11:04:41;16.52;;;5.75;;
69203;SDS011;56317;27.658;85.326;2024-03-07T11:07:11;11.88;;;5.43;;
69203;SDS011;56317;27.658;85.326;2024-03-07T11:09:38;16.98;;;5.97;;
69203;SDS011;56317;27.658;85.326;2024-03-07T11:12:07;16.10;;;6.30;;
69203;SDS011;56317;27.658;85.326;2024-03-07T11:14:37;13.63;;;6.22;;
69203;SDS011;56317;27.658;85.326;2024-03-07T11:17:06;14.20;;;5.97;;
69203;SDS011;56317;27.658;85.326;2024-03-07T11:19:40;15.10;;;7.53;;
69203;SDS011;56317;27.658;85.326;2024-03-07T11:22:07;15.60;;;6.22;;
69203;SDS011;56317;27.658;85.326;2024-03-07T11:27:40;14.55;;;6.53;;
69203;SDS011;56317;27.658;85.326;2024-03-07T11:30:19;18.95;;;6.07;;
69203;SDS011;56317;27.658;85.326;2024-03-07T11:32:48;13.75;;;6.40;;
69203;SDS011;56317;27.658;85.326;2024-03-07T11:38:01;25.98;;;7.50;;
69203;SDS011;56317;27.658;85.326;2024-03-07T11:42:58;19.27;;;8.20;;
69203;SDS011;56317;27.658;85.326;2024-03-07T11:45:30;16.50;;;7.85;;
69203;SDS011;56317;27.658;85.326;2024-03-07T11:48:12;13.88;;;7.53;;
69203;SDS011;56317;27.658;85.326;2024-03-07T11:50:41;27.80;;;10.98;;
69203;SDS011;56317;27.658;85.326;2024-03-07T11:53:08;19.50;;;10.00;;
69203;SDS011;56317;27.658;85.326;2024-03-07T11:55:37;23.38;;;10.55;;
69203;SDS011;56317;27.658;85.326;2024-03-07T11:58:12;26.38;;;9.20;;
69203;SDS011;56317;27.658;85.326;2024-03-07T12:00:42;26.02;;;11.07;;
69203;SDS011;56317;27.658;85.326;2024-03-07T12:03:13;29.17;;;10.63;;
69203;SDS011;56317;27.658;85.326;2024-03-07T12:05:49;28.92;;;10.55;;
69203;SDS011;56317;27.658;85.326;2024-03-07T12:08:19;22.48;;;10.13;;
69203;SDS011;56317;27.658;85.326;2024-03-07T12:10:48;30.58;;;10.82;;
69203;SDS011;56317;27.658;85.326;2024-03-07T12:13:20;29.35;;;11.82;;
69203;SDS011;56317;27.658;85.326;2024-03-07T12:15:48;29.75;;;13.43;;
69203;SDS011;56317;27.658;85.326;2024-03-07T12:18:19;32.78;;;14.27;;
69203;SDS011;56317;27.658;85.326;2024-03-07T12:20:48;28.23;;;14.52;;
69203;SDS011;56317;27.658;85.326;2024-03-07T12:23:25;36.10;;;14.93;;
69203;SDS011;56317;27.658;85.326;2024-03-07T12:26:01;48.70;;;15.25;;
69203;SDS011;56317;27.658;85.326;2024-03-07T12:28:30;27.13;;;13.75;;
69203;SDS011;56317;27.658;85.326;2024-03-07T12:31:03;32.17;;;16.65;;
69203;SDS011;56317;27.658;85.326;2024-03-07T12:33:43;35.38;;;16.20;;
69203;SDS011;56317;27.658;85.326;2024-03-07T12:36:17;36.80;;;17.10;;
69203;SDS011;56317;27.658;85.326;2024-03-07T12:38:52;38.33;;;17.27;;
69203;SDS011;56317;27.658;85.326;2024-03-07T12:41:20;36.90;;;17.52;;
69203;SDS011;56317;27.658;85.326;2024-03-07T12:43:49;44.50;;;18.08;;
69203;SDS011;56317;27.658;85.326;2024-03-07T12:46:17;35.83;;;18.73;;
69203;SDS011;56317;27.658;85.326;2024-03-07T12:48:45;48.40;;;19.25;;
69203;SDS011;56317;27.658;85.326;2024-03-07T12:51:12;44.85;;;20.58;;
69203;SDS011;56317;27.658;85.326;2024-03-07T12:53:45;45.70;;;22.10;;
69203;SDS011;56317;27.658;85.326;2024-03-07T12:56:12;46.42;;;19.38;;
69203;SDS011;56317;27.658;85.326;2024-03-07T12:58:44;52.35;;;27.08;;
69203;SDS011;56317;27.658;85.326;2024-03-07T13:01:11;63.88;;;33.22;;
69203;SDS011;56317;27.658;85.326;2024-03-07T13:03:38;65.03;;;32.80;;
69203;SDS011;56317;27.658;85.326;2024-03-07T13:06:08;65.13;;;33.78;;
69203;SDS011;56317;27.658;85.326;2024-03-07T13:08:36;73.45;;;34.00;;
69203;SDS011;56317;27.658;85.326;2024-03-07T13:11:03;74.78;;;35.22;;
69203;SDS011;56317;27.658;85.326;2024-03-07T13:13:31;71.45;;;37.17;;
69203;SDS011;56317;27.658;85.326;2024-03-07T13:15:59;69.53;;;37.60;;
69203;SDS011;56317;27.658;85.326;2024-03-07T13:18:26;92.93;;;45.05;;
69203;SDS011;56317;27.658;85.326;2024-03-07T13:20:53;104.20;;;53.15;;
69203;SDS011;56317;27.658;85.326;2024-03-07T13:23:20;75.75;;;38.90;;
69203;SDS011;56317;27.658;85.326;2024-03-07T13:25:52;95.68;;;46.15;;
69203;SDS011;56317;27.658;85.326;2024-03-07T13:28:19;79.07;;;38.53;;
69203;SDS011;56317;27.658;85.326;2024-03-07T13:30:51;80.18;;;41.92;;
69203;SDS011;56317;27.658;85.326;2024-03-07T13:33:21;82.80;;;42.17;;
69203;SDS011;56317;27.658;85.326;2024-03-07T13:35:49;68.30;;;37.10;;
69203;SDS011;56317;27.658;85.326;2024-03-07T13:38:17;77.72;;;39.83;;
69203;SDS011;56317;27.658;85.326;2024-03-07T13:40:44;76.07;;;39.50;;
69203;SDS011;56317;27.658;85.326;2024-03-07T13:43:11;77.15;;;40.65;;
69203;SDS011;56317;27.658;85.326;2024-03-07T13:45:38;75.50;;;40.25;;
69203;SDS011;56317;27.658;85.326;2024-03-07T13:48:08;89.10;;;42.63;;
69203;SDS011;56317;27.658;85.326;2024-03-07T13:50:38;78.40;;;38.75;;
69203;SDS011;56317;27.658;85.326;2024-03-07T13:53:16;75.90;;;38.75;;
69203;SDS011;56317;27.658;85.326;2024-03-07T13:58:17;78.82;;;38.85;;
69203;SDS011;56317;27.658;85.326;2024-03-07T14:24:24;77.65;;;39.45;;
69203;SDS011;56317;27.658;85.326;2024-03-07T14:27:37;66.72;;;35.10;;
69203;SDS011;56317;27.658;85.326;2024-03-07T14:32:56;76.95;;;37.67;;
69203;SDS011;56317;27.658;85.326;2024-03-07T14:38:51;68.88;;;35.90;;
69203;SDS011;56317;27.658;85.326;2024-03-07T14:41:20;77.32;;;39.75;;
69203;SDS011;56317;27.658;85.326;2024-03-07T14:44:06;67.07;;;31.20;;
69203;SDS011;56317;27.658;85.326;2024-03-07T14:46:34;68.60;;;40.55;;
69203;SDS011;56317;27.658;85.326;2024-03-07T14:49:01;81.28;;;38.47;;
69203;SDS011;56317;27.658;85.326;2024-03-07T14:51:30;74.00;;;35.22;;
69203;SDS011;56317;27.658;85.326;2024-03-07T14:53:57;79.25;;;39.95;;
69203;SDS011;56317;27.658;85.326;2024-03-07T14:56:24;83.07;;;36.67;;
69203;SDS011;56317;27.658;85.326;2024-03-07T14:58:52;69.25;;;34.67;;
69203;SDS011;56317;27.658;85.326;2024-03-07T15:01:20;71.82;;;37.33;;
69203;SDS011;56317;27.658;85.326;2024-03-07T15:03:52;70.70;;;36.28;;
69203;SDS011;56317;27.658;85.326;2024-03-07T15:06:20;80.57;;;36.22;;
69203;SDS011;56317;27.658;85.326;2024-03-07T15:08:48;75.15;;;35.38;;
69203;SDS011;56317;27.658;85.326;2024-03-07T15:11:21;72.35;;;36.45;;
69203;SDS011;56317;27.658;85.326;2024-03-07T15:14:01;69.35;;;35.80;;
69203;SDS011;56317;27.658;85.326;2024-03-07T15:16:30;75.57;;;37.30;;
69203;SDS011;56317;27.658;85.326;2024-03-07T15:19:01;70.72;;;34.80;;
69203;SDS011;56317;27.658;85.326;2024-03-07T15:21:28;68.95;;;34.92;;
69203;SDS011;56317;27.658;85.326;2024-03-07T15:23:57;69.15;;;34.13;;